Nearby METAR Reports

Actuele Vliegveldwaarnemingen NL (METAR).Zie KNMI uitleg METAR hier

EHAM - Amsterdam/Schiph, Netherlands
Distance from station: ONO 18km
Updated: 21/10/2017 11:55
Nearby showers, Meestal bewolkt
Nearby showers, Meestal bewolkt
 Wind van ZZW
Wind: ZZW 31 km/h
Temperatuur: 15°C
Dauwpunt: 13°C
Vochtigheid: 88%
Barometer: 1007 hPa
Overzicht: Nearby Showers
Clouds: Meestal bewolkt
Visibility: 10 km
Cloud details: Few Clouds 427 m
Meestal bewolkt 1341 m
2017/10/21 09:55 EHAM 210955Z 21017KT 180V240 9999 VCSH FEW014 BKN044 15/13 Q1007 NOSIG
EHKD - DE KOOY/DE KOOY
Updated: 21/10/2017 12:25
Meestal bewolkt
Meestal bewolkt
 Wind van ZZW
Wind: ZZW 39 km/h
Temperatuur: 14°C
Dauwpunt: 11°C
Vochtigheid: 82%
Barometer: 1006 hPa
Clouds: Meestal bewolkt
Visibility: 10 km
Cloud details: Few Clouds 305 m
Gedeeltelijk bewolkt 975 m
Meestal bewolkt 1158 m
2017/10/21 10:25 EHKD 211025Z AUTO 21021KT 9999 FEW010 SCT032 BKN038 14/11 Q1006 REDZ BLU
 
EHLW - LEEUWARDEN/LEEUWARDEN
Updated: 21/10/2017 12:10
Meestal bewolkt
Meestal bewolkt
 Wind van Z
Wind: Z 20 km/h
Temperatuur: 12°C
Dauwpunt: 12°C
Vochtigheid: 100%
Barometer: 1007 hPa
Clouds: Meestal bewolkt
Visibility: 10 km
Cloud details: Few Clouds 183 m
Meestal bewolkt 213 m
Meestal bewolkt 244 m
2017/10/21 10:10 EHLW 211010Z AUTO 18011KT 130V210 9999 FEW006 BKN007 BKN008 12/12 Q1007 GRN
EHVK - VOLKEL/VOLKEL
Updated: 21/10/2017 12:17
Zwaar bewolkt
Zwaar bewolkt
 Wind van ZZW
Wind: ZZW 22 km/h
Temperatuur: 15°C
Dauwpunt: 14°C
Vochtigheid: 94%
Barometer: 1009 hPa
Clouds: Zwaar bewolkt
Visibility: 10 km
Cloud details: Gedeeltelijk bewolkt 396 m
Zwaar bewolkt 457 m
2017/10/21 10:17 EHVK 211017Z AUTO 21012KT 180V260 9999 SCT013 OVC015 15/14 Q1009 GRN
 
EHFS - VLISSINGEN
Updated: 21/10/2017 11:55
Meestal bewolkt
Meestal bewolkt
 Wind van ZZW
Wind: ZZW 33 km/h
Temperatuur: 16°C
Dauwpunt: 13°C
Vochtigheid: 83%
Barometer: 1008 hPa
Clouds: Meestal bewolkt
Visibility: 10 km
Cloud details: Few Clouds 549 m
Gedeeltelijk bewolkt 732 m
Meestal bewolkt 1036 m
2017/10/21 09:55 EHFS 210955Z AUTO 21018KT 9999 FEW018/// SCT024/// BKN034/// 16/13 Q1008
EHEH - EINDHOVEN/EINDHOVEN
Updated: 21/10/2017 12:14
Meestal bewolkt
Meestal bewolkt
 Wind van ZW
Wind: ZW 26 km/h
Temperatuur: 16°C
Dauwpunt: 14°C
Vochtigheid: 88%
Barometer: 1009 hPa
Clouds: Meestal bewolkt
Visibility: 10 km
Cloud details: Gedeeltelijk bewolkt 396 m
Meestal bewolkt 518 m
Meestal bewolkt 3048 m
2017/10/21 10:14 EHEH 211014Z AUTO 23014KT 190V260 9999 SCT013 BKN017 BKN100 16/14 Q1009 GRN 22015G25KT 9999 FEW015 SCT025
 
EHGR - GILZE-RIJEN/GILZE-RIJEN
Updated: 21/10/2017 11:55
Meestal bewolkt
Meestal bewolkt
 Wind van ZZW
Wind: ZZW 20 km/h
Temperatuur: 16°C
Dauwpunt: 13°C
Vochtigheid: 83%
Barometer: 1009 hPa
Clouds: Meestal bewolkt
Visibility: 10 km
Cloud details: Few Clouds 396 m
Meestal bewolkt 488 m
Meestal bewolkt 579 m
2017/10/21 09:55 EHGR 210955Z AUTO 21011KT 170V260 9999 FEW013 BKN016 BKN019 16/13 Q1009 WHT
EHDL - ARNHEM/DEELEN
Updated: 21/10/2017 11:55
Meestal bewolkt
Meestal bewolkt
 Wind van Z
Wind: Z 17 km/h
Temperatuur: 13°C
Dauwpunt: 13°C
Vochtigheid: 100%
Barometer: 1009 hPa
Clouds: Meestal bewolkt
Visibility: 10 km
Cloud details: Few Clouds 183 m
Gedeeltelijk bewolkt 213 m
Meestal bewolkt 244 m
2017/10/21 09:55 EHDL 210955Z AUTO 19009KT 140V250 9999 FEW006 SCT007 BKN008 13/13 Q1009 BLACKGRN
 
EHBK - MAASTRICHT/MAASTRICHT-AACHEN
Updated: 21/10/2017 11:55
Gedeeltelijk bewolkt
Gedeeltelijk bewolkt
 Wind van ZZW
Wind: ZZW 28 km/h
Temperatuur: 16°C
Dauwpunt: 14°C
Vochtigheid: 88%
Barometer: 1011 hPa
Clouds: Gedeeltelijk bewolkt
Visibility: 10 km
Cloud details: Few Clouds 488 m
Gedeeltelijk bewolkt 701 m
2017/10/21 09:55 EHBK 210955Z AUTO 21015KT 9999 FEW016 SCT023 16/14 Q1011 TEMPO 6000 SHRA FEW015TCU